Time;durP1;ratioP1;P1;durP2;ratioP2;P2;SDS_P1;SDS_P2;PMS_P1;PMS_P2;Temp;Humidity;BMP_temperature;BMP_pressure;BME280_temperature;BME280_humidity;BME280_pressure;Samples;Min_cycle;Max_cycle;Signal;HPM_P1;HPM_P2
2023/06/25 00:01:23;;;;;;;8.25;3.55;;;;;;;;;;5006313;28;20068;-67
2023/06/25 00:03:48;;;;;;;7.90;3.53;;;;;;;;;;5016949;28;20104;-68
2023/06/25 00:06:13;;;;;;;9.63;3.63;;;;;;;;;;5017085;28;20042;-68
2023/06/25 00:08:39;;;;;;;13.57;3.70;;;;;;;;;;5015875;28;20033;-68
2023/06/25 00:11:04;;;;;;;11.60;4.22;;;;;;;;;;5015703;28;20429;-67
2023/06/25 00:13:29;;;;;;;8.35;3.17;;;;;;;;;;5016609;28;20076;-68
2023/06/25 00:15:55;;;;;;;9.32;3.78;;;;;;;;;;5016453;28;20405;-68
2023/06/25 00:18:20;;;;;;;8.85;3.78;;;;;;;;;;5015165;28;20042;-67
2023/06/25 00:20:46;;;;;;;8.60;3.53;;;;;;;;;;5016277;28;20523;-68
2023/06/25 00:23:12;;;;;;;6.95;3.00;;;;;;;;;;5014464;28;20433;-67
2023/06/25 00:25:38;;;;;;;7.75;3.38;;;;;;;;;;5015396;28;20474;-68
2023/06/25 00:28:08;;;;;;;11.60;3.13;;;;;;;;;;5016317;28;20030;-68
2023/06/25 00:30:33;;;;;;;5.65;2.95;;;;;;;;;;5016678;28;20045;-68
2023/06/25 00:32:58;;;;;;;9.73;3.40;;;;;;;;;;5016075;28;20080;-68
2023/06/25 00:35:26;;;;;;;5.80;3.10;;;;;;;;;;5016510;28;20028;-67
2023/06/25 00:37:57;;;;;;;8.07;3.58;;;;;;;;;;5016535;28;20033;-68
2023/06/25 00:40:23;;;;;;;9.65;3.60;;;;;;;;;;5014779;28;20045;-68
2023/06/25 00:42:58;;;;;;;7.97;3.03;;;;;;;;;;5014894;28;20466;-68
2023/06/25 00:45:24;;;;;;;5.68;3.35;;;;;;;;;;5016328;28;20048;-68
2023/06/25 00:47:50;;;;;;;8.13;3.13;;;;;;;;;;5039204;28;20386;-68
2023/06/25 00:50:21;;;;;;;8.55;3.15;;;;;;;;;;5012682;28;20042;-68
2023/06/25 00:52:46;;;;;;;6.22;2.80;;;;;;;;;;5015376;28;20030;-68
2023/06/25 00:55:12;;;;;;;7.88;3.08;;;;;;;;;;5016069;28;20041;-68
2023/06/25 00:57:37;;;;;;;7.45;3.10;;;;;;;;;;5016285;28;20093;-68
2023/06/25 01:00:04;;;;;;;6.90;3.13;;;;;;;;;;5015660;28;20062;-68
2023/06/25 01:02:46;;;;;;;5.75;2.78;;;;;;;;;;5014927;28;20046;-68
2023/06/25 01:05:28;;;;;;;7.03;3.08;;;;;;;;;;5012453;28;20026;-68
2023/06/25 01:07:57;;;;;;;6.20;3.22;;;;;;;;;;5014381;28;20405;-68
2023/06/25 01:10:23;;;;;;;7.60;3.35;;;;;;;;;;5015837;28;20100;-67
2023/06/25 01:12:48;;;;;;;5.53;2.45;;;;;;;;;;5014533;28;20045;-68
2023/06/25 01:15:14;;;;;;;11.43;2.78;;;;;;;;;;5015720;28;20413;-67
2023/06/25 01:17:42;;;;;;;7.10;3.13;;;;;;;;;;5015734;28;20037;-68
2023/06/25 01:20:12;;;;;;;5.90;2.80;;;;;;;;;;5014561;28;20038;-67
2023/06/25 01:22:38;;;;;;;6.93;3.05;;;;;;;;;;5013003;28;20520;-69
2023/06/25 01:25:04;;;;;;;11.77;3.08;;;;;;;;;;5015786;28;20065;-67
2023/06/25 01:27:32;;;;;;;4.65;2.55;;;;;;;;;;5014142;28;20069;-67
2023/06/25 01:29:58;;;;;;;5.93;2.70;;;;;;;;;;5014063;28;20038;-67
2023/06/25 01:32:24;;;;;;;9.90;3.00;;;;;;;;;;5015531;28;20041;-67
2023/06/25 01:34:50;;;;;;;6.35;2.92;;;;;;;;;;5004697;28;20035;-68
2023/06/25 01:37:17;;;;;;;8.40;3.20;;;;;;;;;;5015212;28;20049;-68
2023/06/25 01:39:47;;;;;;;8.98;3.22;;;;;;;;;;5015273;28;20022;-68
2023/06/25 01:42:12;;;;;;;6.78;2.92;;;;;;;;;;5015265;28;20041;-67
2023/06/25 01:44:39;;;;;;;8.68;2.90;;;;;;;;;;5014733;28;20033;-68
2023/06/25 01:47:04;;;;;;;7.25;2.97;;;;;;;;;;5015123;28;20454;-68
2023/06/25 01:49:30;;;;;;;7.75;2.92;;;;;;;;;;5015091;28;20041;-68
2023/06/25 01:51:55;;;;;;;6.97;3.05;;;;;;;;;;5013926;28;20050;-67
2023/06/25 01:54:20;;;;;;;8.70;3.10;;;;;;;;;;5013905;28;20030;-67
2023/06/25 01:56:46;;;;;;;8.57;3.60;;;;;;;;;;5014716;28;20038;-67
2023/06/25 01:59:13;;;;;;;6.97;3.22;;;;;;;;;;5012738;28;20056;-67
2023/06/25 02:01:38;;;;;;;5.18;2.70;;;;;;;;;;5014863;28;20092;-68
2023/06/25 02:04:04;;;;;;;5.15;2.53;;;;;;;;;;5014677;28;20034;-68
2023/06/25 02:06:30;;;;;;;9.40;2.80;;;;;;;;;;5014970;28;20489;-67
2023/06/25 02:08:55;;;;;;;7.10;3.05;;;;;;;;;;5013196;28;20042;-68
2023/06/25 02:11:20;;;;;;;6.45;2.92;;;;;;;;;;5015313;28;20096;-68
2023/06/25 02:13:46;;;;;;;5.10;2.83;;;;;;;;;;5014388;28;20037;-67
2023/06/25 02:16:11;;;;;;;8.32;3.22;;;;;;;;;;5014412;28;20030;-68
2023/06/25 02:18:37;;;;;;;5.43;3.10;;;;;;;;;;5013569;28;20410;-68
2023/06/25 02:21:02;;;;;;;5.80;2.53;;;;;;;;;;5014189;28;20053;-67
2023/06/25 02:23:28;;;;;;;8.43;3.10;;;;;;;;;;5013885;28;20034;-68
2023/06/25 02:25:53;;;;;;;6.15;2.90;;;;;;;;;;5014493;28;20414;-68
2023/06/25 02:28:18;;;;;;;6.15;2.72;;;;;;;;;;5013759;28;20045;-68
2023/06/25 02:30:44;;;;;;;10.23;2.80;;;;;;;;;;5014581;28;20037;-68
2023/06/25 02:33:09;;;;;;;5.88;2.78;;;;;;;;;;5014095;28;20048;-68
2023/06/25 02:35:35;;;;;;;6.75;3.20;;;;;;;;;;5013350;28;20061;-68
2023/06/25 02:38:00;;;;;;;7.53;2.92;;;;;;;;;;5013939;28;20025;-67
2023/06/25 02:40:28;;;;;;;6.65;3.40;;;;;;;;;;5013955;28;20466;-67
2023/06/25 02:42:54;;;;;;;6.78;3.05;;;;;;;;;;5013117;28;20129;-68
2023/06/25 02:45:20;;;;;;;9.52;3.10;;;;;;;;;;5013918;28;20033;-68
2023/06/25 02:47:45;;;;;;;6.93;2.85;;;;;;;;;;5014294;28;20038;-68
2023/06/25 02:50:10;;;;;;;8.95;2.97;;;;;;;;;;5013828;28;20038;-68
2023/06/25 02:52:36;;;;;;;6.85;2.83;;;;;;;;;;5010260;28;20044;-68
2023/06/25 02:55:01;;;;;;;6.43;2.90;;;;;;;;;;5013633;28;20034;-67
2023/06/25 02:57:29;;;;;;;6.78;3.10;;;;;;;;;;5013695;28;20117;-68
2023/06/25 02:59:55;;;;;;;6.22;2.60;;;;;;;;;;5013228;28;20044;-68
2023/06/25 03:02:20;;;;;;;5.55;2.65;;;;;;;;;;5014226;28;20116;-68
2023/06/25 03:04:46;;;;;;;6.30;3.13;;;;;;;;;;5013770;28;20367;-68
2023/06/25 03:07:11;;;;;;;5.63;2.80;;;;;;;;;;5013845;28;20428;-68
2023/06/25 03:09:36;;;;;;;5.13;2.63;;;;;;;;;;5013534;28;20120;-68
2023/06/25 03:12:02;;;;;;;12.02;2.85;;;;;;;;;;5012626;28;20060;-68
2023/06/25 03:14:27;;;;;;;6.20;3.05;;;;;;;;;;5011143;28;20033;-68
2023/06/25 03:16:52;;;;;;;7.18;3.15;;;;;;;;;;5013647;28;20041;-68
2023/06/25 03:19:18;;;;;;;7.20;2.50;;;;;;;;;;5013534;28;20041;-68
2023/06/25 03:21:43;;;;;;;7.47;3.03;;;;;;;;;;5013568;28;20033;-68
2023/06/25 03:24:08;;;;;;;7.80;2.83;;;;;;;;;;5013546;28;20042;-68
2023/06/25 03:26:34;;;;;;;7.47;2.95;;;;;;;;;;5013536;28;20172;-68
2023/06/25 03:28:59;;;;;;;7.05;2.92;;;;;;;;;;5012564;28;20121;-68
2023/06/25 03:31:24;;;;;;;8.43;2.67;;;;;;;;;;5012786;28;20124;-68
2023/06/25 03:33:50;;;;;;;6.28;2.97;;;;;;;;;;5013352;28;20042;-68
2023/06/25 03:36:15;;;;;;;8.60;2.92;;;;;;;;;;5013587;28;20041;-67
2023/06/25 03:38:40;;;;;;;6.28;2.50;;;;;;;;;;5011982;28;20038;-67
2023/06/25 03:41:06;;;;;;;6.25;2.30;;;;;;;;;;5013229;28;20504;-67
2023/06/25 03:43:31;;;;;;;6.50;2.80;;;;;;;;;;5013209;28;20037;-67
2023/06/25 03:45:57;;;;;;;5.57;2.50;;;;;;;;;;5013122;28;20038;-67
2023/06/25 03:48:22;;;;;;;8.25;2.85;;;;;;;;;;5012239;28;20045;-67
2023/06/25 03:50:47;;;;;;;6.00;2.80;;;;;;;;;;5013276;28;20038;-67
2023/06/25 03:53:13;;;;;;;5.25;2.83;;;;;;;;;;5013021;28;20038;-67
2023/06/25 03:55:38;;;;;;;6.40;2.70;;;;;;;;;;5013519;28;20042;-67
2023/06/25 03:58:03;;;;;;;6.30;2.97;;;;;;;;;;5012883;28;20046;-67
2023/06/25 04:00:29;;;;;;;6.68;2.75;;;;;;;;;;5013082;28;20038;-67
2023/06/25 04:02:55;;;;;;;5.25;2.40;;;;;;;;;;5012690;28;20280;-67
2023/06/25 04:05:20;;;;;;;6.55;3.25;;;;;;;;;;5013324;28;20026;-67
2023/06/25 04:07:45;;;;;;;6.93;2.88;;;;;;;;;;5009039;28;20120;-67
2023/06/25 04:10:11;;;;;;;4.07;2.30;;;;;;;;;;5009775;28;20038;-67
2023/06/25 04:12:36;;;;;;;6.30;2.50;;;;;;;;;;5013255;28;20041;-67
2023/06/25 04:15:02;;;;;;;5.45;2.58;;;;;;;;;;5012246;28;20042;-67
2023/06/25 04:17:27;;;;;;;6.72;2.70;;;;;;;;;;5012574;28;20038;-67
2023/06/25 04:19:52;;;;;;;9.02;2.67;;;;;;;;;;5012862;28;20030;-68
2023/06/25 04:22:17;;;;;;;6.95;2.50;;;;;;;;;;5013272;28;20044;-67
2023/06/25 04:24:43;;;;;;;4.95;2.63;;;;;;;;;;5012806;28;20061;-68
2023/06/25 04:27:08;;;;;;;5.00;2.25;;;;;;;;;;5010791;28;20073;-67
2023/06/25 04:29:33;;;;;;;5.38;2.78;;;;;;;;;;5012646;28;20051;-68
2023/06/25 04:32:00;;;;;;;5.50;2.60;;;;;;;;;;5011440;28;20456;-67
2023/06/25 04:34:26;;;;;;;9.05;3.00;;;;;;;;;;5012844;28;20092;-67
2023/06/25 04:36:51;;;;;;;8.32;2.55;;;;;;;;;;5012928;28;20046;-68
2023/06/25 04:39:16;;;;;;;4.88;2.30;;;;;;;;;;5012270;28;20120;-68
2023/06/25 04:41:41;;;;;;;5.22;2.80;;;;;;;;;;5012737;28;20156;-67
2023/06/25 04:44:07;;;;;;;6.18;2.58;;;;;;;;;;5016522;28;20435;-68
2023/06/25 04:46:32;;;;;;;5.00;2.75;;;;;;;;;;5013771;28;20588;-67
2023/06/25 04:48:58;;;;;;;3.55;2.33;;;;;;;;;;5015701;28;20533;-68
2023/06/25 04:51:23;;;;;;;6.13;2.22;;;;;;;;;;5013253;28;20030;-68
2023/06/25 04:53:48;;;;;;;3.28;1.80;;;;;;;;;;5014865;28;20037;-68
2023/06/25 04:56:15;;;;;;;11.38;2.35;;;;;;;;;;5016054;28;20026;-67
2023/06/25 04:58:40;;;;;;;7.60;1.67;;;;;;;;;;5015786;28;20056;-67
2023/06/25 05:01:06;;;;;;;14.73;2.45;;;;;;;;;;5015677;28;20453;-68
2023/06/25 05:03:31;;;;;;;9.65;2.33;;;;;;;;;;5015587;28;20037;-68
2023/06/25 05:05:57;;;;;;;3.55;1.73;;;;;;;;;;5015765;28;20125;-68
2023/06/25 05:08:22;;;;;;;35.38;3.13;;;;;;;;;;5016046;28;20041;-68
2023/06/25 05:10:48;;;;;;;17.02;2.05;;;;;;;;;;5010207;28;20085;-68
2023/06/25 05:13:13;;;;;;;4.05;2.00;;;;;;;;;;5015813;28;20048;-67
2023/06/25 05:15:41;;;;;;;4.45;2.05;;;;;;;;;;5015494;28;20042;-68
2023/06/25 05:18:09;;;;;;;2.65;1.60;;;;;;;;;;5015766;28;20045;-68
2023/06/25 05:20:38;;;;;;;2.67;1.70;;;;;;;;;;5015652;28;20088;-67
2023/06/25 05:23:07;;;;;;;4.13;1.70;;;;;;;;;;5015329;28;20482;-68
2023/06/25 05:25:33;;;;;;;2.95;1.55;;;;;;;;;;5015779;28;20037;-68
2023/06/25 05:28:01;;;;;;;4.25;1.58;;;;;;;;;;5015361;28;20029;-68
2023/06/25 05:30:27;;;;;;;4.75;1.90;;;;;;;;;;5015094;28;20066;-68
2023/06/25 05:32:52;;;;;;;3.33;1.80;;;;;;;;;;5015617;28;20091;-67
2023/06/25 05:35:17;;;;;;;4.55;1.70;;;;;;;;;;5015363;28;20030;-68
2023/06/25 05:37:43;;;;;;;2.58;1.50;;;;;;;;;;5015339;28;20042;-68
2023/06/25 05:40:08;;;;;;;2.60;1.50;;;;;;;;;;5014939;28;20038;-68
2023/06/25 05:42:34;;;;;;;2.72;1.67;;;;;;;;;;5015199;28;20454;-68
2023/06/25 05:44:59;;;;;;;3.80;1.50;;;;;;;;;;5008805;28;20038;-68
2023/06/25 05:47:24;;;;;;;3.15;1.60;;;;;;;;;;5014852;28;20041;-67
2023/06/25 05:49:50;;;;;;;4.18;1.92;;;;;;;;;;5009322;28;20045;-68
2023/06/25 05:52:15;;;;;;;3.20;1.67;;;;;;;;;;5014955;28;20042;-68
2023/06/25 05:54:40;;;;;;;6.35;1.55;;;;;;;;;;5014520;28;20045;-68
2023/06/25 05:57:06;;;;;;;2.53;1.30;;;;;;;;;;5014839;28;20033;-68
2023/06/25 05:59:31;;;;;;;6.32;1.60;;;;;;;;;;5014245;28;20057;-67
2023/06/25 06:01:56;;;;;;;2.80;1.30;;;;;;;;;;5014707;28;20045;-68
2023/06/25 06:04:22;;;;;;;4.82;1.70;;;;;;;;;;5013546;28;20061;-68
2023/06/25 06:06:47;;;;;;;4.43;1.50;;;;;;;;;;5014851;28;20474;-68
2023/06/25 06:09:12;;;;;;;4.40;1.58;;;;;;;;;;5014730;28;20049;-68
2023/06/25 06:11:38;;;;;;;2.33;1.40;;;;;;;;;;5015032;28;20041;-68
2023/06/25 06:14:05;;;;;;;2.65;1.48;;;;;;;;;;5014332;28;20072;-68
2023/06/25 06:16:31;;;;;;;2.03;1.30;;;;;;;;;;5014714;28;20437;-68
2023/06/25 06:18:56;;;;;;;5.03;1.50;;;;;;;;;;5014155;28;20030;-68
2023/06/25 06:21:21;;;;;;;2.53;1.50;;;;;;;;;;5013909;28;20084;-68
2023/06/25 06:23:47;;;;;;;2.58;1.52;;;;;;;;;;5012977;28;20064;-69
2023/06/25 06:26:12;;;;;;;3.15;1.40;;;;;;;;;;5006732;28;20034;-68
2023/06/25 06:28:37;;;;;;;2.38;1.20;;;;;;;;;;5014375;28;20037;-68
2023/06/25 06:31:03;;;;;;;2.75;1.50;;;;;;;;;;5013031;28;20392;-68
2023/06/25 06:33:28;;;;;;;2.88;1.70;;;;;;;;;;5004006;28;20080;-68
2023/06/25 06:35:53;;;;;;;2.20;1.20;;;;;;;;;;5014224;28;20034;-68
2023/06/25 06:38:19;;;;;;;2.60;1.40;;;;;;;;;;5012689;28;20038;-69
2023/06/25 06:40:44;;;;;;;2.45;1.40;;;;;;;;;;5013307;28;20109;-69
2023/06/25 06:43:09;;;;;;;2.03;1.30;;;;;;;;;;5007684;28;20116;-68
2023/06/25 06:45:35;;;;;;;3.45;1.40;;;;;;;;;;5014026;28;20042;-69
2023/06/25 06:48:02;;;;;;;4.47;1.80;;;;;;;;;;5013542;28;20068;-68
2023/06/25 06:50:27;;;;;;;2.42;1.58;;;;;;;;;;5013028;28;20064;-68
2023/06/25 06:52:53;;;;;;;2.83;1.50;;;;;;;;;;5013251;28;20034;-68
2023/06/25 06:55:18;;;;;;;2.83;1.77;;;;;;;;;;5015025;28;20350;-68
2023/06/25 06:57:43;;;;;;;2.28;1.55;;;;;;;;;;5016040;28;20053;-68
2023/06/25 07:00:09;;;;;;;6.35;1.88;;;;;;;;;;5013076;28;20397;-69
2023/06/25 07:02:35;;;;;;;2.60;1.77;;;;;;;;;;5014129;28;20033;-68
2023/06/25 07:05:00;;;;;;;4.38;1.77;;;;;;;;;;5013192;28;20405;-69
2023/06/25 07:07:25;;;;;;;4.18;2.00;;;;;;;;;;5012977;28;20045;-69
2023/06/25 07:09:51;;;;;;;2.47;1.60;;;;;;;;;;5013502;28;20041;-69
2023/06/25 07:12:17;;;;;;;3.38;1.83;;;;;;;;;;5012002;28;20045;-68
2023/06/25 07:14:43;;;;;;;4.97;1.80;;;;;;;;;;5012428;28;20041;-69
2023/06/25 07:17:08;;;;;;;4.00;2.13;;;;;;;;;;5011872;28;20390;-69
2023/06/25 07:19:34;;;;;;;3.75;1.85;;;;;;;;;;5013572;28;20096;-68
2023/06/25 07:21:59;;;;;;;3.10;1.73;;;;;;;;;;5012737;28;20046;-68
2023/06/25 07:24:24;;;;;;;3.03;1.60;;;;;;;;;;5013159;28;20195;-68
2023/06/25 07:26:50;;;;;;;3.30;2.10;;;;;;;;;;5013238;28;20043;-68
2023/06/25 07:29:15;;;;;;;3.33;2.03;;;;;;;;;;5013385;28;20033;-68
2023/06/25 07:31:40;;;;;;;3.85;1.85;;;;;;;;;;5013627;28;20060;-68
2023/06/25 07:34:06;;;;;;;3.17;1.83;;;;;;;;;;5013289;28;20030;-68
2023/06/25 07:36:31;;;;;;;4.18;2.03;;;;;;;;;;5013335;28;20049;-68
2023/06/25 07:38:57;;;;;;;3.03;1.88;;;;;;;;;;5012119;28;20034;-68
2023/06/25 07:41:23;;;;;;;3.72;2.10;;;;;;;;;;5012861;28;20549;-68
2023/06/25 07:43:48;;;;;;;5.05;2.25;;;;;;;;;;5013545;28;20121;-69
2023/06/25 07:46:13;;;;;;;4.53;1.75;;;;;;;;;;5013253;28;20378;-68
2023/06/25 07:48:39;;;;;;;3.20;1.98;;;;;;;;;;5013186;28;20066;-72
2023/06/25 07:51:04;;;;;;;4.07;2.03;;;;;;;;;;5011974;28;20042;-71
2023/06/25 07:53:30;;;;;;;3.05;1.88;;;;;;;;;;5012961;28;20030;-72
2023/06/25 07:55:55;;;;;;;3.20;1.80;;;;;;;;;;5012663;28;20115;-72
2023/06/25 07:58:20;;;;;;;5.95;2.47;;;;;;;;;;5009480;28;20046;-70
2023/06/25 08:00:45;;;;;;;5.32;2.28;;;;;;;;;;5011847;28;20026;-70
2023/06/25 08:03:11;;;;;;;10.88;2.22;;;;;;;;;;5011660;28;20038;-70
2023/06/25 08:05:36;;;;;;;4.18;2.35;;;;;;;;;;5012929;28;20038;-70
2023/06/25 08:08:01;;;;;;;4.70;2.05;;;;;;;;;;5012757;28;20458;-71
2023/06/25 08:10:27;;;;;;;3.28;2.33;;;;;;;;;;5011980;28;20484;-70
2023/06/25 08:12:54;;;;;;;6.65;2.30;;;;;;;;;;5012660;28;20054;-71
2023/06/25 08:15:20;;;;;;;5.57;2.30;;;;;;;;;;5011764;28;20034;-70
2023/06/25 08:17:46;;;;;;;4.63;2.20;;;;;;;;;;5015836;28;20049;-71
2023/06/25 08:20:12;;;;;;;3.42;2.38;;;;;;;;;;5006370;28;20161;-71
2023/06/25 08:22:37;;;;;;;6.82;2.40;;;;;;;;;;5015926;28;20038;-68
2023/06/25 08:25:09;;;;;;;3.53;2.47;;;;;;;;;;5011381;28;20048;-68
2023/06/25 08:27:35;;;;;;;3.25;2.20;;;;;;;;;;5016414;28;20608;-68
2023/06/25 08:30:00;;;;;;;3.67;2.20;;;;;;;;;;5016293;28;20071;-68
2023/06/25 08:32:25;;;;;;;5.30;2.65;;;;;;;;;;5015906;28;20399;-68
2023/06/25 08:34:51;;;;;;;3.95;2.60;;;;;;;;;;5016533;28;20041;-68
2023/06/25 08:37:16;;;;;;;5.07;2.53;;;;;;;;;;5016399;28;20026;-68
2023/06/25 08:39:41;;;;;;;3.60;2.30;;;;;;;;;;5016279;28;20038;-68
2023/06/25 08:42:07;;;;;;;4.28;2.95;;;;;;;;;;5016468;28;20037;-68
2023/06/25 08:44:32;;;;;;;4.82;2.70;;;;;;;;;;5015815;28;20041;-68
2023/06/25 08:46:58;;;;;;;3.50;2.28;;;;;;;;;;5012364;28;20037;-68
2023/06/25 08:49:25;;;;;;;4.55;2.78;;;;;;;;;;5014343;28;20053;-68
2023/06/25 08:51:53;;;;;;;7.47;2.60;;;;;;;;;;5012940;28;20389;-68
2023/06/25 08:54:19;;;;;;;3.95;2.45;;;;;;;;;;5015138;28;20444;-68
2023/06/25 08:56:44;;;;;;;5.13;2.72;;;;;;;;;;5014999;28;20038;-68
2023/06/25 08:59:09;;;;;;;3.92;2.70;;;;;;;;;;5014864;28;20137;-69
2023/06/25 09:01:35;;;;;;;8.05;2.38;;;;;;;;;;5015773;28;20121;-68
2023/06/25 09:04:01;;;;;;;5.07;2.70;;;;;;;;;;5014756;28;20045;-69
2023/06/25 09:06:26;;;;;;;4.03;2.65;;;;;;;;;;5015713;28;20112;-69
2023/06/25 09:08:51;;;;;;;5.50;2.90;;;;;;;;;;5006852;28;20067;-68
2023/06/25 09:11:17;;;;;;;3.92;2.50;;;;;;;;;;5015857;28;20038;-68
2023/06/25 09:13:45;;;;;;;6.32;2.67;;;;;;;;;;5013885;28;20099;-70
2023/06/25 09:16:10;;;;;;;9.82;2.72;;;;;;;;;;5014439;28;20041;-69
2023/06/25 09:18:36;;;;;;;3.85;2.47;;;;;;;;;;5015334;28;20038;-69
2023/06/25 09:21:03;;;;;;;4.05;2.65;;;;;;;;;;5015343;28;20033;-69
2023/06/25 09:23:29;;;;;;;5.32;2.80;;;;;;;;;;5015676;28;20041;-69
2023/06/25 09:25:54;;;;;;;4.13;3.00;;;;;;;;;;5015605;28;20052;-69
2023/06/25 09:28:20;;;;;;;7.97;2.75;;;;;;;;;;5014150;28;20042;-69
2023/06/25 09:30:46;;;;;;;4.85;2.80;;;;;;;;;;5015522;28;20042;-69
2023/06/25 09:33:12;;;;;;;4.18;2.30;;;;;;;;;;5015078;28;20405;-70
2023/06/25 09:35:38;;;;;;;4.88;2.38;;;;;;;;;;5015418;28;20030;-69
2023/06/25 09:38:04;;;;;;;6.78;2.70;;;;;;;;;;5014037;28;20042;-70
2023/06/25 09:40:29;;;;;;;5.75;2.63;;;;;;;;;;5015211;28;20053;-69
2023/06/25 09:42:56;;;;;;;6.60;3.20;;;;;;;;;;5015133;28;20029;-69
2023/06/25 09:45:22;;;;;;;5.05;2.80;;;;;;;;;;5013989;28;20132;-70
2023/06/25 09:47:50;;;;;;;5.38;3.05;;;;;;;;;;5014563;28;20037;-69
2023/06/25 09:50:22;;;;;;;5.93;2.70;;;;;;;;;;5008045;28;20080;-69
2023/06/25 09:52:51;;;;;;;6.95;2.60;;;;;;;;;;5002804;28;20038;-69
2023/06/25 09:55:17;;;;;;;6.30;3.15;;;;;;;;;;5014862;28;20045;-70
2023/06/25 09:57:42;;;;;;;7.47;3.00;;;;;;;;;;5014837;28;20046;-69
2023/06/25 10:00:09;;;;;;;5.65;3.00;;;;;;;;;;5014869;28;20034;-69
2023/06/25 10:02:34;;;;;;;5.13;2.80;;;;;;;;;;5013359;28;20033;-69
2023/06/25 10:05:00;;;;;;;4.75;2.90;;;;;;;;;;5014635;28;20044;-69
2023/06/25 10:07:26;;;;;;;5.05;3.00;;;;;;;;;;5014822;28;20046;-69
2023/06/25 10:09:54;;;;;;;5.15;2.83;;;;;;;;;;5014870;28;20116;-69
2023/06/25 10:12:20;;;;;;;6.35;3.20;;;;;;;;;;5013567;28;20034;-69
2023/06/25 10:14:47;;;;;;;6.32;3.13;;;;;;;;;;5014667;28;20400;-69
2023/06/25 10:17:12;;;;;;;4.32;2.88;;;;;;;;;;5013216;28;20169;-69
2023/06/25 10:19:37;;;;;;;5.47;3.63;;;;;;;;;;5014474;28;20062;-69
2023/06/25 10:22:07;;;;;;;6.18;2.97;;;;;;;;;;5014626;28;20038;-69
2023/06/25 10:24:42;;;;;;;3.80;2.60;;;;;;;;;;5012094;28;20033;-69
2023/06/25 10:27:28;;;;;;;4.70;2.78;;;;;;;;;;5014345;28;20109;-69
2023/06/25 10:29:55;;;;;;;4.72;3.03;;;;;;;;;;5006090;28;20052;-68
2023/06/25 10:32:21;;;;;;;8.52;2.58;;;;;;;;;;5011881;28;20494;-69
2023/06/25 10:34:59;;;;;;;5.38;3.00;;;;;;;;;;5013242;28;20036;-69
2023/06/25 10:37:29;;;;;;;8.95;2.97;;;;;;;;;;5014230;28;20100;-70
2023/06/25 10:40:01;;;;;;;3.58;2.50;;;;;;;;;;5013917;28;20096;-69
2023/06/25 10:42:29;;;;;;;5.30;2.70;;;;;;;;;;5014254;28;20042;-69
2023/06/25 10:44:54;;;;;;;3.70;2.58;;;;;;;;;;5011577;28;20069;-69
2023/06/25 10:47:20;;;;;;;6.40;3.17;;;;;;;;;;5002095;28;20057;-70
2023/06/25 10:49:45;;;;;;;5.00;2.83;;;;;;;;;;5014078;28;20038;-69
2023/06/25 10:52:10;;;;;;;3.58;2.50;;;;;;;;;;5013980;28;21222;-69
2023/06/25 10:54:36;;;;;;;4.80;2.70;;;;;;;;;;5012908;28;20478;-68
2023/06/25 10:57:08;;;;;;;4.85;3.15;;;;;;;;;;5006109;28;20043;-69
2023/06/25 10:59:34;;;;;;;4.78;2.75;;;;;;;;;;5013377;28;20073;-70
2023/06/25 11:02:19;;;;;;;6.95;2.75;;;;;;;;;;5013231;28;20036;-71
2023/06/25 11:04:52;;;;;;;5.28;2.80;;;;;;;;;;5012361;28;20037;-71
2023/06/25 11:07:22;;;;;;;6.35;2.70;;;;;;;;;;5013860;28;20038;-71
2023/06/25 11:09:58;;;;;;;6.90;2.70;;;;;;;;;;5005825;28;20486;-71
2023/06/25 11:12:24;;;;;;;4.68;2.78;;;;;;;;;;5009039;28;20038;-71
2023/06/25 11:14:49;;;;;;;5.65;2.97;;;;;;;;;;5008272;28;20573;-71
2023/06/25 11:17:15;;;;;;;5.20;2.75;;;;;;;;;;5012766;28;20029;-71
2023/06/25 11:19:41;;;;;;;5.85;3.20;;;;;;;;;;5011920;28;20069;-71
2023/06/25 11:22:07;;;;;;;4.60;2.70;;;;;;;;;;5011978;28;20077;-71
2023/06/25 11:24:37;;;;;;;7.50;2.60;;;;;;;;;;5012579;28;20533;-71
2023/06/25 11:27:03;;;;;;;6.78;3.00;;;;;;;;;;5013519;28;20034;-71
2023/06/25 11:29:36;;;;;;;5.22;2.67;;;;;;;;;;5012541;28;20120;-69
2023/06/25 11:32:05;;;;;;;6.18;2.75;;;;;;;;;;5013560;28;20030;-71
2023/06/25 11:34:31;;;;;;;5.63;2.80;;;;;;;;;;5012916;28;20133;-71
2023/06/25 11:36:56;;;;;;;5.10;2.50;;;;;;;;;;5012987;28;20112;-70
2023/06/25 11:39:21;;;;;;;3.80;2.55;;;;;;;;;;5013536;28;20060;-71
2023/06/25 11:41:47;;;;;;;8.32;3.00;;;;;;;;;;5013214;28;20129;-70
2023/06/25 11:44:19;;;;;;;5.88;3.00;;;;;;;;;;5013163;28;20124;-68
2023/06/25 11:46:53;;;;;;;4.70;3.00;;;;;;;;;;5013226;28;20076;-70
2023/06/25 11:49:18;;;;;;;6.22;2.60;;;;;;;;;;5013423;28;20318;-70
2023/06/25 11:51:45;;;;;;;4.82;2.67;;;;;;;;;;5011785;28;20470;-71
2023/06/25 11:54:10;;;;;;;5.97;2.42;;;;;;;;;;5017322;28;20145;-71
2023/06/25 11:56:36;;;;;;;8.40;2.80;;;;;;;;;;5016833;28;20173;-71
2023/06/25 11:59:01;;;;;;;5.28;2.55;;;;;;;;;;5016480;28;20042;-70
2023/06/25 12:01:29;;;;;;;4.78;2.80;;;;;;;;;;5017367;28;20092;-71
2023/06/25 12:03:54;;;;;;;5.80;2.60;;;;;;;;;;5016636;28;20082;-71
2023/06/25 12:06:19;;;;;;;4.38;2.53;;;;;;;;;;5016709;28;20069;-71
2023/06/25 12:08:45;;;;;;;5.90;2.20;;;;;;;;;;5017315;28;20048;-71
2023/06/25 12:11:10;;;;;;;4.43;2.78;;;;;;;;;;5016647;28;20030;-71
2023/06/25 12:13:36;;;;;;;6.07;2.60;;;;;;;;;;5016131;28;20038;-71
2023/06/25 12:16:01;;;;;;;4.22;2.28;;;;;;;;;;5002445;28;20046;-71
2023/06/25 12:18:26;;;;;;;6.63;2.42;;;;;;;;;;5016967;28;20536;-70
2023/06/25 12:20:52;;;;;;;6.95;2.47;;;;;;;;;;5013456;28;20030;-70
2023/06/25 12:23:17;;;;;;;4.70;2.53;;;;;;;;;;5015517;28;20049;-70
2023/06/25 12:25:43;;;;;;;7.43;2.97;;;;;;;;;;5016629;28;20041;-71
2023/06/25 12:28:08;;;;;;;5.70;3.00;;;;;;;;;;5016181;28;20034;-70
2023/06/25 12:30:33;;;;;;;5.25;2.70;;;;;;;;;;5008695;28;20037;-71
2023/06/25 12:32:59;;;;;;;7.28;2.70;;;;;;;;;;5013795;28;20033;-71
2023/06/25 12:35:24;;;;;;;6.10;2.50;;;;;;;;;;5012094;28;20050;-71
2023/06/25 12:37:49;;;;;;;5.22;2.67;;;;;;;;;;5012764;28;20038;-71
2023/06/25 12:40:15;;;;;;;4.90;2.83;;;;;;;;;;5011173;28;20038;-71
2023/06/25 12:42:40;;;;;;;6.15;3.00;;;;;;;;;;5013006;28;20478;-71
2023/06/25 12:45:07;;;;;;;4.78;2.63;;;;;;;;;;5013198;28;20041;-71
2023/06/25 12:47:33;;;;;;;4.05;2.58;;;;;;;;;;5012634;28;20393;-71
2023/06/25 12:49:58;;;;;;;5.13;2.92;;;;;;;;;;5011100;28;20030;-71
2023/06/25 12:52:23;;;;;;;6.97;2.80;;;;;;;;;;5013052;28;20049;-71
2023/06/25 12:54:49;;;;;;;4.70;2.60;;;;;;;;;;5012055;28;20080;-71
2023/06/25 12:57:14;;;;;;;5.50;2.30;;;;;;;;;;5011541;28;20029;-71
2023/06/25 12:59:39;;;;;;;4.65;2.65;;;;;;;;;;5013609;28;20041;-71
2023/06/25 13:02:05;;;;;;;6.60;2.47;;;;;;;;;;5013035;28;20251;-71
2023/06/25 13:04:31;;;;;;;5.75;2.80;;;;;;;;;;5013129;28;20112;-71
2023/06/25 13:06:56;;;;;;;5.22;2.67;;;;;;;;;;5011852;28;20042;-71
2023/06/25 13:09:21;;;;;;;4.93;2.30;;;;;;;;;;5012797;28;20048;-71
2023/06/25 13:11:47;;;;;;;5.70;2.67;;;;;;;;;;5013581;28;20083;-71
2023/06/25 13:14:12;;;;;;;3.53;2.30;;;;;;;;;;5012977;28;20064;-71
2023/06/25 13:16:37;;;;;;;7.72;2.75;;;;;;;;;;5013017;28;20045;-71
2023/06/25 13:19:03;;;;;;;5.15;2.90;;;;;;;;;;5012139;28;20117;-71
2023/06/25 13:21:28;;;;;;;6.18;2.60;;;;;;;;;;5013548;28;20052;-71
2023/06/25 13:23:53;;;;;;;4.82;2.60;;;;;;;;;;5009237;28;20034;-71
2023/06/25 13:26:19;;;;;;;9.38;2.78;;;;;;;;;;5008622;28;20051;-71
2023/06/25 13:28:44;;;;;;;5.30;2.70;;;;;;;;;;5012727;28;20389;-71
2023/06/25 13:31:09;;;;;;;4.65;2.50;;;;;;;;;;5012509;28;20565;-71
2023/06/25 13:33:35;;;;;;;5.75;2.75;;;;;;;;;;5013137;28;20489;-71
2023/06/25 13:36:00;;;;;;;5.28;2.53;;;;;;;;;;5002726;28;20494;-71
2023/06/25 13:38:25;;;;;;;8.52;2.63;;;;;;;;;;5010005;28;20137;-71
2023/06/25 13:40:51;;;;;;;6.75;2.95;;;;;;;;;;5012345;28;20096;-71
2023/06/25 13:43:16;;;;;;;3.45;2.30;;;;;;;;;;5012298;28;20441;-71
2023/06/25 13:45:41;;;;;;;10.82;2.45;;;;;;;;;;5011573;28;20150;-71
2023/06/25 13:48:07;;;;;;;3.80;2.50;;;;;;;;;;5010633;28;20037;-71
2023/06/25 13:50:32;;;;;;;5.47;2.72;;;;;;;;;;5012431;28;20076;-71
2023/06/25 13:52:57;;;;;;;8.98;2.63;;;;;;;;;;5012048;28;20038;-71
2023/06/25 13:55:23;;;;;;;5.60;2.55;;;;;;;;;;5012253;28;20033;-71
2023/06/25 13:57:48;;;;;;;3.63;1.98;;;;;;;;;;5008712;28;20054;-71
2023/06/25 14:00:14;;;;;;;3.53;2.00;;;;;;;;;;5012064;28;20030;-71
2023/06/25 14:02:39;;;;;;;5.15;2.13;;;;;;;;;;5011121;28;20080;-71
2023/06/25 14:05:05;;;;;;;4.15;2.17;;;;;;;;;;5010058;28;20038;-71
2023/06/25 14:07:30;;;;;;;3.88;2.22;;;;;;;;;;5009449;28;20545;-71
2023/06/25 14:09:55;;;;;;;3.67;2.00;;;;;;;;;;5007155;28;20038;-71
2023/06/25 14:12:21;;;;;;;4.35;2.20;;;;;;;;;;5008319;28;20100;-71
2023/06/25 14:14:46;;;;;;;4.35;1.85;;;;;;;;;;5013433;28;20084;-71
2023/06/25 14:17:12;;;;;;;4.50;2.00;;;;;;;;;;5016246;28;20038;-71
2023/06/25 14:19:37;;;;;;;3.80;2.05;;;;;;;;;;5013795;28;20057;-71
2023/06/25 14:22:02;;;;;;;7.18;2.20;;;;;;;;;;5013254;28;20038;-71
2023/06/25 14:24:28;;;;;;;4.05;1.92;;;;;;;;;;5008158;28;20370;-71
2023/06/25 14:26:53;;;;;;;6.18;2.22;;;;;;;;;;5007927;28;20040;-71
2023/06/25 14:29:19;;;;;;;5.53;2.28;;;;;;;;;;5013894;28;20125;-71
2023/06/25 14:31:44;;;;;;;4.55;2.28;;;;;;;;;;5013545;28;20037;-70
2023/06/25 14:34:09;;;;;;;6.40;2.20;;;;;;;;;;5012984;28;20038;-70
2023/06/25 14:36:35;;;;;;;5.70;2.45;;;;;;;;;;5011322;28;20168;-70